createdAt,value
2023-03-03T00:03:59.675Z,81.10
2023-03-03T00:06:27.035Z,81.37
2023-03-03T00:08:53.750Z,82.09
2023-03-03T00:11:20.273Z,82.12
2023-03-03T00:13:52.795Z,83.29
2023-03-03T00:19:01.329Z,83.14
2023-03-03T00:21:32.213Z,82.51
2023-03-03T00:24:16.341Z,82.91
2023-03-03T00:26:46.948Z,83.15
2023-03-03T00:29:27.791Z,82.61
2023-03-03T00:31:55.266Z,83.24
2023-03-03T00:34:27.842Z,83.73
2023-03-03T00:36:56.955Z,83.55
2023-03-03T00:39:31.156Z,84.19
2023-03-03T00:42:00.687Z,84.50
2023-03-03T00:44:43.857Z,84.24
2023-03-03T00:50:11.484Z,84.99
2023-03-03T00:52:40.632Z,84.79
2023-03-03T00:55:08.577Z,84.24
2023-03-03T00:57:36.418Z,84.60
2023-03-03T01:00:04.094Z,83.31
2023-03-03T01:02:31.237Z,83.43
2023-03-03T01:04:57.862Z,83.06
2023-03-03T01:07:24.525Z,83.42
2023-03-03T01:09:51.115Z,83.93
2023-03-03T01:12:17.781Z,83.91
2023-03-03T01:14:45.500Z,84.20
2023-03-03T01:19:43.822Z,84.25
2023-03-03T01:22:10.344Z,84.39
2023-03-03T01:27:08.762Z,84.57
2023-03-03T01:29:35.257Z,84.27
2023-03-03T01:32:01.867Z,83.92
2023-03-03T01:34:28.420Z,84.13
2023-03-03T01:36:54.992Z,84.15
2023-03-03T01:39:21.562Z,85.03
2023-03-03T01:44:19.811Z,83.76
2023-03-03T01:46:55.119Z,83.73
2023-03-03T01:49:40.197Z,83.47
2023-03-03T01:52:35.075Z,84.00
2023-03-03T01:55:10.272Z,84.67
2023-03-03T02:02:57.524Z,85.58
2023-03-03T02:05:24.730Z,85.58
2023-03-03T02:07:52.233Z,83.45
2023-03-03T02:10:21.361Z,84.56
2023-03-03T02:12:56.046Z,84.53
2023-03-03T02:15:32.471Z,85.09
2023-03-03T02:18:01.984Z,84.10
2023-03-03T02:23:27.309Z,83.83
2023-03-03T02:25:58.812Z,84.23
2023-03-03T02:28:31.742Z,84.19
2023-03-03T02:33:31.282Z,83.61
2023-03-03T02:35:57.873Z,83.43
2023-03-03T02:38:47.605Z,83.33
2023-03-03T02:41:35.998Z,83.86
2023-03-03T02:44:05.733Z,84.18
2023-03-03T02:46:35.344Z,84.31
2023-03-03T02:49:02.740Z,84.19
2023-03-03T02:51:29.809Z,83.62
2023-03-03T02:53:56.407Z,84.73
2023-03-03T02:56:23.156Z,85.29
2023-03-03T02:58:49.957Z,85.98
2023-03-03T03:01:16.680Z,86.06
2023-03-03T03:03:43.330Z,86.68
2023-03-03T03:06:09.859Z,86.42
2023-03-03T03:08:36.450Z,86.72
2023-03-03T03:11:05.922Z,86.31
2023-03-03T03:13:33.100Z,86.55
2023-03-03T03:15:59.909Z,86.81
2023-03-03T03:18:27.572Z,86.80
2023-03-03T03:20:54.312Z,85.90
2023-03-03T03:23:23.775Z,85.55
2023-03-03T03:25:50.356Z,85.17
2023-03-03T03:28:17.798Z,85.43
2023-03-03T03:30:45.883Z,85.39
2023-03-03T03:33:12.590Z,84.48
2023-03-03T03:35:40.653Z,85.09
2023-03-03T03:38:07.181Z,85.48
2023-03-03T03:43:06.093Z,86.02
2023-03-03T03:45:32.858Z,86.09
2023-03-03T03:47:59.705Z,86.54
2023-03-03T03:50:26.293Z,86.07
2023-03-03T03:52:52.844Z,85.39
2023-03-03T03:55:19.392Z,86.02
2023-03-03T03:57:46.010Z,85.67
2023-03-03T04:00:12.918Z,85.96
2023-03-03T04:02:39.573Z,85.76
2023-03-03T04:05:07.441Z,85.94
2023-03-03T04:07:34.249Z,86.31
2023-03-03T04:10:00.883Z,85.74
2023-03-03T04:12:27.504Z,86.06
2023-03-03T04:14:54.012Z,86.01
2023-03-03T04:17:24.563Z,86.18
2023-03-03T04:19:53.362Z,86.31
2023-03-03T04:22:20.265Z,86.39
2023-03-03T04:24:48.750Z,86.34
2023-03-03T04:27:15.700Z,86.21
2023-03-03T04:29:42.619Z,86.11
2023-03-03T04:37:23.639Z,86.11
2023-03-03T04:39:50.239Z,86.28
2023-03-03T04:42:16.816Z,85.84
2023-03-03T04:44:43.568Z,85.12
2023-03-03T04:47:10.157Z,85.13
2023-03-03T04:49:37.205Z,84.87
2023-03-03T04:52:04.008Z,84.23
2023-03-03T04:54:31.203Z,85.06
2023-03-03T04:56:58.652Z,85.34
2023-03-03T05:02:02.559Z,86.08
2023-03-03T05:04:29.060Z,85.86
2023-03-03T05:06:57.574Z,85.75
2023-03-03T05:09:24.117Z,85.61
2023-03-03T05:11:50.732Z,86.50
2023-03-03T05:16:48.559Z,84.89
2023-03-03T05:19:15.196Z,85.91
2023-03-03T05:21:42.896Z,85.13
2023-03-03T05:26:42.637Z,85.79
2023-03-03T05:29:09.656Z,86.22
2023-03-03T05:31:36.923Z,85.90
2023-03-03T05:34:03.825Z,84.94
2023-03-03T05:36:30.486Z,85.80
2023-03-03T05:38:57.023Z,85.49
2023-03-03T05:41:23.858Z,86.12
2023-03-03T05:46:24.320Z,85.31
2023-03-03T05:48:50.871Z,85.66
2023-03-03T05:51:17.430Z,85.65
2023-03-03T05:53:44.025Z,85.95
2023-03-03T05:56:10.552Z,86.56
2023-03-03T05:58:37.111Z,86.28
2023-03-03T06:01:03.770Z,86.41
2023-03-03T06:03:30.414Z,85.71
2023-03-03T06:05:57.031Z,84.50
2023-03-03T06:08:23.662Z,86.03
2023-03-03T06:10:50.220Z,85.54
2023-03-03T06:13:16.751Z,86.13
2023-03-03T06:18:21.572Z,85.04
2023-03-03T06:20:52.341Z,85.15
2023-03-03T06:25:53.066Z,83.88
2023-03-03T06:28:19.964Z,85.16
2023-03-03T06:30:46.572Z,85.19
2023-03-03T06:33:13.065Z,85.95
2023-03-03T06:35:39.721Z,84.99
2023-03-03T06:38:06.279Z,84.93
2023-03-03T06:40:32.992Z,85.19
2023-03-03T06:42:59.525Z,84.97
2023-03-03T06:45:26.103Z,84.47
2023-03-03T06:47:52.712Z,84.07
2023-03-03T06:50:20.716Z,83.59
2023-03-03T06:52:47.344Z,83.85
2023-03-03T06:55:21.488Z,83.20
2023-03-03T06:57:48.257Z,83.16
2023-03-03T07:00:16.896Z,83.62
2023-03-03T07:02:43.661Z,83.29
2023-03-03T07:07:52.457Z,81.62
2023-03-03T07:10:27.467Z,82.00
2023-03-03T07:12:56.871Z,81.77
2023-03-03T07:15:34.621Z,81.85
2023-03-03T07:18:02.610Z,82.37
2023-03-03T07:20:39.778Z,82.35
2023-03-03T07:23:21.314Z,82.13
2023-03-03T07:25:48.691Z,81.93
2023-03-03T07:28:27.202Z,81.31
2023-03-03T07:30:54.830Z,81.35
2023-03-03T07:33:27.099Z,80.93
2023-03-03T07:35:59.454Z,80.70
2023-03-03T07:38:42.564Z,80.03
2023-03-03T07:41:20.902Z,79.99
2023-03-03T07:43:55.194Z,80.70
2023-03-03T07:47:00.791Z,80.40
2023-03-03T07:49:36.135Z,79.97
2023-03-03T07:52:17.555Z,80.51
2023-03-03T07:54:46.542Z,79.15
2023-03-03T07:57:22.677Z,79.25
2023-03-03T07:59:52.424Z,78.43
2023-03-03T08:02:39.803Z,79.23
2023-03-03T08:05:41.877Z,79.14
2023-03-03T08:08:29.456Z,78.78
2023-03-03T08:10:58.186Z,77.80
2023-03-03T08:16:09.547Z,76.75
2023-03-03T08:18:40.043Z,75.23
2023-03-03T08:21:13.068Z,74.27
2023-03-03T08:23:39.920Z,72.97
2023-03-03T08:26:07.186Z,71.88
2023-03-03T08:28:33.860Z,71.56
2023-03-03T08:31:15.468Z,71.31
2023-03-03T08:33:47.388Z,70.78
2023-03-03T08:36:14.504Z,69.65
2023-03-03T08:38:41.295Z,69.38
2023-03-03T08:41:08.033Z,68.66
2023-03-03T08:43:34.794Z,68.09
2023-03-03T08:46:05.417Z,68.39
2023-03-03T08:48:33.209Z,68.29
2023-03-03T08:51:00.207Z,67.77
2023-03-03T08:56:02.239Z,66.41
2023-03-03T08:58:35.199Z,65.99
2023-03-03T09:01:02.967Z,65.81
2023-03-03T09:03:30.060Z,66.64
2023-03-03T09:05:56.734Z,65.56
2023-03-03T09:08:23.275Z,63.75
2023-03-03T09:10:49.805Z,65.37
2023-03-03T09:13:19.586Z,65.27
2023-03-03T09:15:47.128Z,67.03
2023-03-03T09:18:24.988Z,68.40
2023-03-03T09:20:54.832Z,67.81
2023-03-03T09:23:31.207Z,68.92
2023-03-03T09:26:11.653Z,68.37
2023-03-03T09:28:38.598Z,68.40
2023-03-03T09:31:22.162Z,67.37
2023-03-03T09:33:55.165Z,67.87
2023-03-03T09:36:26.303Z,67.50
2023-03-03T09:38:55.895Z,67.69
2023-03-03T09:41:28.653Z,68.08
2023-03-03T09:44:07.112Z,68.04
2023-03-03T09:46:47.112Z,67.24
2023-03-03T09:49:31.280Z,67.80
2023-03-03T09:52:16.302Z,66.97
2023-03-03T09:54:55.802Z,66.66
2023-03-03T09:58:10.042Z,66.28
2023-03-03T10:00:59.237Z,66.50
2023-03-03T10:03:46.765Z,66.34
2023-03-03T10:06:22.617Z,65.52
2023-03-03T10:09:29.526Z,65.19
2023-03-03T10:12:09.890Z,64.17
2023-03-03T10:15:12.926Z,64.82
2023-03-03T10:18:08.917Z,65.18
2023-03-03T10:23:37.802Z,63.55
2023-03-03T10:26:26.880Z,64.34
2023-03-03T10:29:10.426Z,62.80
2023-03-03T10:32:03.287Z,62.04
2023-03-03T10:34:37.694Z,62.75
2023-03-03T10:37:15.126Z,61.27
2023-03-03T10:40:10.996Z,60.44
2023-03-03T10:42:49.909Z,60.47
2023-03-03T10:45:53.756Z,59.39
2023-03-03T10:48:35.317Z,59.36
2023-03-03T10:51:08.757Z,58.49
2023-03-03T10:53:51.454Z,59.00
2023-03-03T10:56:52.939Z,59.74
2023-03-03T10:59:31.901Z,59.48
2023-03-03T11:02:03.186Z,58.34
2023-03-03T11:04:32.617Z,58.98
2023-03-03T11:07:19.658Z,58.26
2023-03-03T11:10:00.891Z,57.63
2023-03-03T11:12:37.892Z,57.23
2023-03-03T11:18:15.173Z,58.27
2023-03-03T11:20:59.985Z,57.82
2023-03-03T11:23:50.100Z,58.66
2023-03-03T11:26:31.859Z,57.83
2023-03-03T11:29:21.792Z,58.50
2023-03-03T11:32:09.157Z,58.88
2023-03-03T11:34:55.613Z,59.25
2023-03-03T11:37:25.108Z,58.91
2023-03-03T11:39:55.749Z,59.43
2023-03-03T11:42:41.177Z,59.43
2023-03-03T11:45:19.992Z,59.46
2023-03-03T11:48:06.125Z,57.36
2023-03-03T11:51:01.887Z,57.28
2023-03-03T11:53:43.708Z,56.97
2023-03-03T11:56:27.762Z,55.19
2023-03-03T11:58:58.381Z,52.62
2023-03-03T12:01:37.004Z,51.67
2023-03-03T12:04:10.322Z,49.79
2023-03-03T12:06:47.919Z,48.80
2023-03-03T12:09:31.817Z,48.86
2023-03-03T12:12:16.522Z,48.67
2023-03-03T12:15:02.468Z,48.52
2023-03-03T12:20:31.138Z,47.49
2023-03-03T12:23:23.785Z,47.70
2023-03-03T12:26:17.566Z,47.11
2023-03-03T12:35:18.349Z,44.98
2023-03-03T12:40:34.814Z,45.02
2023-03-03T12:43:30.960Z,45.32
2023-03-03T12:46:06.250Z,46.42
2023-03-03T12:48:41.849Z,45.97
2023-03-03T12:51:16.603Z,45.48
2023-03-03T12:54:16.560Z,45.75
2023-03-03T12:57:09.559Z,45.75
2023-03-03T13:00:13.815Z,45.72
2023-03-03T13:02:56.879Z,44.66
2023-03-03T13:05:35.330Z,46.07
2023-03-03T13:08:33.572Z,45.96
2023-03-03T13:14:04.688Z,45.39
2023-03-03T13:19:26.560Z,45.90
2023-03-03T13:22:08.708Z,44.78
2023-03-03T13:25:06.112Z,46.34
2023-03-03T13:27:44.048Z,45.35
2023-03-03T13:30:28.135Z,46.21
2023-03-03T13:33:15.052Z,44.81
2023-03-03T13:35:55.604Z,44.47
2023-03-03T13:38:36.939Z,45.19
2023-03-03T13:41:15.726Z,45.35
2023-03-03T13:44:00.740Z,45.41
2023-03-03T13:46:50.391Z,46.23
2023-03-03T13:49:35.027Z,45.99
2023-03-03T13:55:03.515Z,46.59
2023-03-03T14:00:22.931Z,46.47
2023-03-03T14:03:39.525Z,46.54
2023-03-03T14:06:14.878Z,45.87
2023-03-03T14:08:44.500Z,45.96
2023-03-03T14:14:15.385Z,47.49
2023-03-03T14:16:47.357Z,46.59
2023-03-03T14:19:51.986Z,46.80
2023-03-03T14:22:53.614Z,47.59
2023-03-03T14:25:20.536Z,47.84
2023-03-03T14:27:47.182Z,47.73
2023-03-03T14:30:25.362Z,47.71
2023-03-03T14:33:10.695Z,47.21
2023-03-03T14:35:44.050Z,46.78
2023-03-03T14:38:14.912Z,47.64
2023-03-03T14:40:45.609Z,47.78
2023-03-03T14:43:26.080Z,47.74
2023-03-03T14:45:54.512Z,47.73
2023-03-03T14:48:30.456Z,47.20
2023-03-03T14:51:25.334Z,48.01
2023-03-03T14:53:52.746Z,48.74
2023-03-03T14:56:26.700Z,47.74
2023-03-03T14:58:55.691Z,47.33
2023-03-03T15:01:34.257Z,47.68
2023-03-03T15:04:10.712Z,48.16
2023-03-03T15:09:48.815Z,47.97
2023-03-03T15:12:25.177Z,47.89
2023-03-03T15:15:02.271Z,47.99
2023-03-03T15:17:54.932Z,48.78
2023-03-03T15:20:45.500Z,48.86
2023-03-03T15:23:24.370Z,48.79
2023-03-03T15:26:19.176Z,48.91
2023-03-03T15:32:23.741Z,50.01
2023-03-03T15:35:23.168Z,48.90
2023-03-03T15:40:36.698Z,49.46
2023-03-03T15:43:15.458Z,49.74
2023-03-03T15:46:06.623Z,49.11
2023-03-03T15:48:49.317Z,49.84
2023-03-03T15:51:44.136Z,49.94
2023-03-03T15:54:51.272Z,50.52
2023-03-03T15:57:29.525Z,49.89
2023-03-03T16:00:03.145Z,50.15
2023-03-03T16:02:47.081Z,50.85
2023-03-03T16:05:31.152Z,50.57
2023-03-03T16:08:09.484Z,51.64
2023-03-03T16:11:04.269Z,51.79
2023-03-03T16:13:59.463Z,52.06
2023-03-03T16:16:49.018Z,51.83
2023-03-03T16:19:18.542Z,51.35
2023-03-03T16:21:54.074Z,51.97
2023-03-03T16:24:58.224Z,52.63
2023-03-03T16:27:36.789Z,52.46
2023-03-03T16:30:32.538Z,53.17
2023-03-03T16:33:21.436Z,53.43
2023-03-03T16:36:08.234Z,54.25
2023-03-03T16:38:45.559Z,54.27
2023-03-03T16:41:21.323Z,54.48
2023-03-03T16:46:50.595Z,55.00
2023-03-03T16:49:59.195Z,55.33
2023-03-03T16:52:36.232Z,55.35
2023-03-03T16:55:15.423Z,56.11
2023-03-03T16:57:51.604Z,56.35
2023-03-03T17:00:21.745Z,56.79
2023-03-03T17:03:00.390Z,56.71
2023-03-03T17:05:53.027Z,56.37
2023-03-03T17:08:31.663Z,56.65
2023-03-03T17:11:12.778Z,57.89
2023-03-03T17:13:42.188Z,57.08
2023-03-03T17:16:49.836Z,57.51
2023-03-03T17:19:49.237Z,57.63
2023-03-03T17:22:24.564Z,58.40
2023-03-03T17:25:18.541Z,58.28
2023-03-03T17:28:09.317Z,58.04
2023-03-03T17:30:52.413Z,58.75
2023-03-03T17:33:33.708Z,58.89
2023-03-03T17:36:16.301Z,59.25
2023-03-03T17:39:14.408Z,59.47
2023-03-03T17:41:46.311Z,60.03
2023-03-03T17:44:29.860Z,60.56
2023-03-03T17:47:04.522Z,60.81
2023-03-03T17:49:45.926Z,61.61
2023-03-03T17:52:23.013Z,61.60
2023-03-03T17:54:59.192Z,61.77
2023-03-03T17:57:52.652Z,62.20
2023-03-03T18:00:39.361Z,62.49
2023-03-03T18:03:36.916Z,62.80
2023-03-03T18:09:24.981Z,64.00
2023-03-03T18:12:11.117Z,63.63
2023-03-03T18:14:58.871Z,64.70
2023-03-03T18:18:09.804Z,65.33
2023-03-03T18:20:51.117Z,65.45
2023-03-03T18:23:35.583Z,66.36
2023-03-03T18:26:04.921Z,66.80
2023-03-03T18:28:45.722Z,66.57
2023-03-03T18:31:43.921Z,66.73
2023-03-03T18:34:25.556Z,69.75
2023-03-03T18:37:17.899Z,66.49
2023-03-03T18:42:26.056Z,66.79
2023-03-03T18:44:52.602Z,67.45
2023-03-03T18:47:21.132Z,73.86
2023-03-03T18:50:05.559Z,59.15
2023-03-03T18:52:34.949Z,62.15
2023-03-03T18:55:21.659Z,64.45
2023-03-03T18:58:36.425Z,65.88
2023-03-03T19:01:14.066Z,67.51
2023-03-03T19:03:45.063Z,68.24
2023-03-03T19:06:11.659Z,68.29
2023-03-03T19:11:48.940Z,69.89
2023-03-03T19:14:25.901Z,69.77
2023-03-03T19:16:54.316Z,70.53
2023-03-03T19:19:25.172Z,70.52
2023-03-03T19:22:31.044Z,70.54
2023-03-03T19:25:09.551Z,71.14
2023-03-03T19:27:43.333Z,70.94
2023-03-03T19:30:55.814Z,70.46
2023-03-03T19:33:50.217Z,70.55
2023-03-03T19:36:48.877Z,70.47
2023-03-03T19:39:39.335Z,71.68
2023-03-03T19:42:40.067Z,71.88
2023-03-03T19:45:22.086Z,72.18
2023-03-03T19:47:55.763Z,72.64
2023-03-03T19:50:45.066Z,72.70
2023-03-03T19:53:42.168Z,73.34
2023-03-03T19:56:20.052Z,73.74
2023-03-03T19:58:55.734Z,73.61
2023-03-03T20:01:48.134Z,73.58
2023-03-03T20:04:45.453Z,73.32
2023-03-03T20:10:15.790Z,74.19
2023-03-03T20:13:13.740Z,74.33
2023-03-03T20:15:51.980Z,74.75
2023-03-03T20:18:36.684Z,75.33
2023-03-03T20:21:21.544Z,75.06
2023-03-03T20:24:10.919Z,75.55
2023-03-03T20:26:49.656Z,75.70
2023-03-03T20:29:42.238Z,76.56
2023-03-03T20:32:23.793Z,76.41
2023-03-03T20:34:59.805Z,76.24
2023-03-03T20:37:54.306Z,75.98
2023-03-03T20:40:45.507Z,75.86
2023-03-03T20:43:27.038Z,76.31
2023-03-03T20:46:10.860Z,76.38
2023-03-03T20:48:58.059Z,76.20
2023-03-03T20:51:36.572Z,75.90
2023-03-03T20:57:11.182Z,76.94
2023-03-03T20:59:55.680Z,77.13
2023-03-03T21:02:54.002Z,77.35
2023-03-03T21:05:22.836Z,77.51
2023-03-03T21:07:52.740Z,77.59
2023-03-03T21:10:24.454Z,77.37
2023-03-03T21:12:53.543Z,77.74
2023-03-03T21:15:38.122Z,78.01
2023-03-03T21:18:21.393Z,78.11
2023-03-03T21:20:47.961Z,78.24
2023-03-03T21:23:14.579Z,78.07
2023-03-03T21:25:41.242Z,77.82
2023-03-03T21:28:29.552Z,77.28
2023-03-03T21:31:02.107Z,77.11
2023-03-03T21:33:56.023Z,77.15
2023-03-03T21:36:42.801Z,77.74
2023-03-03T21:39:39.929Z,78.24
2023-03-03T21:42:09.326Z,78.05
2023-03-03T21:44:44.640Z,78.54
2023-03-03T21:47:14.983Z,78.48
2023-03-03T21:49:43.540Z,78.56
2023-03-03T21:52:11.239Z,79.36
2023-03-03T21:54:38.078Z,79.21
2023-03-03T21:57:04.928Z,79.49
2023-03-03T21:59:31.516Z,79.51
2023-03-03T22:01:58.061Z,79.57
2023-03-03T22:04:24.792Z,79.80
2023-03-03T22:06:52.885Z,79.38
2023-03-03T22:09:19.780Z,78.14
2023-03-03T22:11:46.578Z,79.34
2023-03-03T22:14:13.213Z,79.95
2023-03-03T22:16:40.068Z,79.49
2023-03-03T22:19:09.284Z,79.82
2023-03-03T22:21:36.954Z,80.34
2023-03-03T22:24:04.099Z,80.52
2023-03-03T22:26:30.862Z,80.55
2023-03-03T22:28:57.458Z,80.40
2023-03-03T22:31:24.102Z,80.40
2023-03-03T22:33:51.126Z,80.49
2023-03-03T22:36:19.132Z,80.36
2023-03-03T22:38:46.872Z,80.60
2023-03-03T22:41:13.998Z,80.58
2023-03-03T22:43:41.993Z,81.01
2023-03-03T22:46:09.701Z,80.96
2023-03-03T22:48:36.858Z,80.47
2023-03-03T22:51:04.363Z,79.84
2023-03-03T22:53:31.579Z,80.15
2023-03-03T22:58:29.626Z,81.08
2023-03-03T23:03:27.727Z,81.91
2023-03-03T23:05:54.378Z,82.25
2023-03-03T23:08:21.369Z,81.87
2023-03-03T23:10:48.804Z,80.95
2023-03-03T23:15:49.813Z,81.96
2023-03-03T23:18:16.388Z,81.60
2023-03-03T23:20:46.070Z,81.22
2023-03-03T23:23:12.856Z,81.14
2023-03-03T23:25:39.497Z,81.59
2023-03-03T23:28:06.379Z,81.36
2023-03-03T23:33:11.292Z,81.29
2023-03-03T23:35:37.974Z,81.27
2023-03-03T23:38:04.637Z,82.32
2023-03-03T23:40:31.231Z,83.05
2023-03-03T23:42:57.778Z,82.70
2023-03-03T23:45:24.444Z,83.03
2023-03-03T23:47:50.956Z,83.58
2023-03-03T23:50:17.600Z,82.87
2023-03-03T23:52:44.147Z,83.11
2023-03-03T23:55:11.127Z,83.37
2023-03-03T23:57:37.735Z,83.12
